Time;durP1;ratioP1;P1;durP2;ratioP2;P2;SDS_P1;SDS_P2;PMS_P1;PMS_P2;Temp;Humidity;BMP_temperature;BMP_pressure;BME280_temperature;BME280_humidity;BME280_pressure;Samples;Min_cycle;Max_cycle;Signal;HPM_P1;HPM_P2
2023/12/10 00:02:19;;;;;;;27.15;13.68;;;2.90;99.90;;;;;;5037690;28;20118;-61
2023/12/10 00:04:45;;;;;;;27.30;15.63;;;2.90;99.90;;;;;;5038347;28;20108;-61
2023/12/10 00:07:10;;;;;;;25.25;13.82;;;2.90;99.90;;;;;;5039445;28;20029;-60
2023/12/10 00:09:36;;;;;;;28.17;14.52;;;2.90;99.90;;;;;;5039963;28;20037;-61
2023/12/10 00:12:02;;;;;;;28.98;14.52;;;2.80;99.90;;;;;;5038917;28;20031;-60
2023/12/10 00:14:28;;;;;;;24.23;14.27;;;2.80;99.90;;;;;;5039483;28;20502;-60
2023/12/10 00:16:53;;;;;;;28.48;15.15;;;2.80;99.90;;;;;;5041312;28;20103;-61
2023/12/10 00:19:19;;;;;;;23.90;13.48;;;2.80;99.90;;;;;;5039310;28;20029;-61
2023/12/10 00:21:46;;;;;;;23.75;11.95;;;2.80;99.90;;;;;;5039490;28;20021;-61
2023/12/10 00:24:12;;;;;;;25.48;14.60;;;2.80;99.90;;;;;;5039005;28;20082;-61
2023/12/10 00:26:37;;;;;;;22.33;13.05;;;2.80;99.90;;;;;;5039226;28;20040;-60
2023/12/10 00:29:03;;;;;;;28.00;15.63;;;2.80;99.90;;;;;;5039235;28;20056;-60
2023/12/10 00:31:28;;;;;;;30.20;15.30;;;2.80;99.90;;;;;;5040910;28;20024;-61
2023/12/10 00:33:54;;;;;;;26.83;14.80;;;2.80;99.90;;;;;;5039036;28;20040;-61
2023/12/10 00:36:20;;;;;;;32.15;15.40;;;2.80;99.90;;;;;;5032907;28;20022;-61
2023/12/10 00:38:45;;;;;;;22.95;13.77;;;2.80;99.90;;;;;;5039198;28;20402;-61
2023/12/10 00:41:12;;;;;;;24.48;13.05;;;2.80;99.90;;;;;;5038354;28;20066;-61
2023/12/10 00:43:41;;;;;;;27.65;15.02;;;2.80;99.90;;;;;;5039092;28;20024;-60
2023/12/10 00:46:07;;;;;;;33.55;17.35;;;2.70;99.90;;;;;;5038921;28;20020;-60
2023/12/10 00:48:40;;;;;;;25.85;15.10;;;2.80;99.90;;;;;;5038935;28;20032;-60
2023/12/10 00:51:06;;;;;;;35.75;15.90;;;2.80;99.90;;;;;;5040411;28;20103;-61
2023/12/10 00:53:32;;;;;;;26.45;16.42;;;2.80;99.90;;;;;;5038805;28;20021;-60
2023/12/10 00:55:57;;;;;;;25.70;14.68;;;2.80;99.90;;;;;;5038370;28;20837;-60
2023/12/10 00:58:23;;;;;;;26.55;14.40;;;2.80;99.90;;;;;;5038904;28;20187;-61
2023/12/10 01:00:48;;;;;;;32.95;16.55;;;2.80;99.90;;;;;;5038777;28;20083;-61
2023/12/10 01:03:14;;;;;;;26.42;13.38;;;2.80;99.90;;;;;;5038574;28;20037;-61
2023/12/10 01:05:39;;;;;;;27.00;15.07;;;2.80;99.90;;;;;;5038961;28;20491;-60
2023/12/10 01:08:05;;;;;;;26.10;14.82;;;2.80;99.90;;;;;;5040274;28;20475;-61
2023/12/10 01:10:30;;;;;;;28.67;15.10;;;2.80;99.90;;;;;;5038849;28;20503;-60
2023/12/10 01:12:56;;;;;;;23.08;13.25;;;2.80;99.90;;;;;;5038359;28;20040;-61
2023/12/10 01:15:29;;;;;;;29.38;16.58;;;2.80;99.90;;;;;;5038828;28;20071;-61
2023/12/10 01:18:00;;;;;;;22.73;12.98;;;2.80;99.90;;;;;;5038954;28;20024;-60
2023/12/10 01:20:27;;;;;;;24.00;14.13;;;2.80;99.90;;;;;;5036535;28;20086;-60
2023/12/10 01:22:52;;;;;;;33.10;16.08;;;2.80;99.90;;;;;;5038053;28;20035;-60
2023/12/10 01:25:18;;;;;;;28.92;16.13;;;2.70;99.90;;;;;;5035025;28;20029;-60
2023/12/10 01:27:43;;;;;;;27.35;13.75;;;2.80;99.90;;;;;;5038239;28;20052;-61
2023/12/10 01:30:09;;;;;;;29.55;17.08;;;2.80;99.90;;;;;;5039976;28;20116;-61
2023/12/10 01:32:35;;;;;;;28.13;15.65;;;2.80;99.90;;;;;;5038465;28;20040;-61
2023/12/10 01:35:00;;;;;;;29.77;15.75;;;2.70;99.90;;;;;;5038403;28;20086;-61
2023/12/10 01:37:26;;;;;;;24.83;14.88;;;2.80;99.90;;;;;;5035371;28;20108;-61
2023/12/10 01:39:52;;;;;;;26.33;14.75;;;2.70;99.90;;;;;;5038241;28;20033;-61
2023/12/10 01:42:17;;;;;;;28.35;14.13;;;2.70;99.90;;;;;;5038538;28;20091;-61
2023/12/10 01:44:43;;;;;;;28.75;15.32;;;2.70;99.90;;;;;;5036972;28;20048;-61
2023/12/10 01:47:10;;;;;;;29.48;16.40;;;2.80;99.90;;;;;;5039871;28;20063;-58
2023/12/10 01:49:37;;;;;;;27.15;15.98;;;2.80;99.90;;;;;;5038561;28;20394;-59
2023/12/10 01:52:03;;;;;;;28.95;15.85;;;2.80;99.90;;;;;;5034339;28;20139;-58
2023/12/10 01:54:28;;;;;;;32.28;18.13;;;2.80;99.90;;;;;;5033953;28;20037;-59
2023/12/10 01:56:54;;;;;;;37.05;18.63;;;2.80;99.90;;;;;;5036758;28;20041;-59
2023/12/10 01:59:22;;;;;;;36.97;19.42;;;2.80;99.90;;;;;;5034781;28;20198;-58
2023/12/10 02:01:48;;;;;;;39.35;19.10;;;2.80;99.90;;;;;;5033741;28;20025;-59
2023/12/10 02:04:16;;;;;;;33.63;17.98;;;2.80;99.90;;;;;;5035933;28;20080;-59
2023/12/10 02:06:46;;;;;;;28.95;17.20;;;2.80;99.90;;;;;;5033566;28;20165;-59
2023/12/10 02:09:18;;;;;;;28.20;15.70;;;2.80;99.90;;;;;;5041873;28;20040;-59
2023/12/10 02:11:44;;;;;;;29.10;16.40;;;2.80;99.90;;;;;;5043545;28;20492;-59
2023/12/10 02:14:09;;;;;;;29.98;17.00;;;2.80;99.90;;;;;;5041657;28;20013;-59
2023/12/10 02:16:35;;;;;;;27.92;15.25;;;2.80;99.90;;;;;;5041596;28;20583;-59
2023/12/10 02:19:00;;;;;;;26.67;15.65;;;2.80;99.90;;;;;;5041596;28;20116;-59
2023/12/10 02:21:29;;;;;;;30.70;16.17;;;2.80;99.90;;;;;;5041498;28;20598;-59
2023/12/10 02:24:04;;;;;;;29.13;15.77;;;2.80;99.90;;;;;;5041695;28;20400;-59
2023/12/10 02:26:30;;;;;;;24.92;14.00;;;2.80;99.90;;;;;;5040095;28;20029;-59
2023/12/10 02:28:55;;;;;;;28.50;15.70;;;2.70;99.90;;;;;;5041402;28;20017;-59
2023/12/10 02:31:21;;;;;;;28.40;15.60;;;2.80;99.90;;;;;;5035853;28;20029;-59
2023/12/10 02:33:47;;;;;;;27.73;15.70;;;2.70;99.90;;;;;;5033886;28;20036;-59
2023/12/10 02:36:13;;;;;;;21.05;13.15;;;2.70;99.90;;;;;;5033377;28;20032;-59
2023/12/10 02:38:39;;;;;;;25.55;14.27;;;2.70;99.90;;;;;;5041215;28;20495;-59
2023/12/10 02:41:05;;;;;;;28.67;15.27;;;2.70;99.90;;;;;;5036274;28;20033;-59
2023/12/10 02:43:31;;;;;;;27.10;15.25;;;2.60;99.90;;;;;;5036749;28;20029;-59
2023/12/10 02:45:57;;;;;;;27.30;14.65;;;2.60;99.90;;;;;;5041690;28;20031;-59
2023/12/10 02:48:22;;;;;;;28.65;14.38;;;2.60;99.90;;;;;;5032478;28;20041;-59
2023/12/10 02:50:51;;;;;;;28.35;15.10;;;2.60;99.90;;;;;;5034024;28;20083;-59
2023/12/10 02:53:17;;;;;;;24.50;13.27;;;2.50;99.90;;;;;;5036449;28;21001;-59
2023/12/10 02:55:43;;;;;;;25.15;14.02;;;2.50;99.90;;;;;;5032139;28;20087;-59
2023/12/10 02:58:08;;;;;;;24.27;14.55;;;2.50;99.90;;;;;;5035180;28;20017;-59
2023/12/10 03:00:34;;;;;;;32.17;15.48;;;2.50;99.90;;;;;;5029277;28;20518;-59
2023/12/10 03:03:00;;;;;;;25.08;14.13;;;2.50;99.90;;;;;;5038035;28;20033;-59
2023/12/10 03:05:26;;;;;;;22.77;12.75;;;2.50;99.90;;;;;;5032289;28;20025;-59
2023/12/10 03:07:52;;;;;;;23.38;13.15;;;2.50;99.90;;;;;;5034011;28;20432;-59
2023/12/10 03:10:17;;;;;;;22.23;12.45;;;2.50;99.90;;;;;;5035460;28;20029;-59
2023/12/10 03:12:43;;;;;;;24.42;14.70;;;2.50;99.90;;;;;;5032166;28;20064;-59
2023/12/10 03:15:09;;;;;;;18.42;11.73;;;2.40;99.90;;;;;;5035565;28;20104;-59
2023/12/10 03:17:34;;;;;;;25.92;13.13;;;2.40;99.90;;;;;;5033047;28;20037;-59
2023/12/10 03:19:59;;;;;;;20.67;12.65;;;2.40;99.90;;;;;;5032686;28;20134;-58
2023/12/10 03:22:25;;;;;;;20.58;12.43;;;2.50;99.90;;;;;;5032133;28;20456;-58
2023/12/10 03:24:50;;;;;;;23.00;12.98;;;2.40;99.90;;;;;;5034420;28;20017;-59
2023/12/10 03:27:16;;;;;;;25.83;13.77;;;2.50;99.90;;;;;;5033930;28;20064;-59
2023/12/10 03:29:41;;;;;;;21.13;11.98;;;2.50;99.90;;;;;;5031809;28;20507;-59
2023/12/10 03:32:07;;;;;;;18.70;11.73;;;2.50;99.90;;;;;;5036112;28;20162;-59
2023/12/10 03:34:32;;;;;;;21.75;12.23;;;2.50;99.90;;;;;;5033781;28;20036;-59
2023/12/10 03:36:58;;;;;;;22.63;12.15;;;2.50;99.90;;;;;;5028664;28;20037;-58
2023/12/10 03:39:24;;;;;;;21.40;10.65;;;2.50;99.90;;;;;;5034206;28;20032;-59
2023/12/10 03:41:50;;;;;;;19.88;11.38;;;2.50;99.90;;;;;;5032014;28;20021;-58
2023/12/10 03:44:15;;;;;;;21.10;11.38;;;2.50;99.90;;;;;;5031584;28;20036;-59
2023/12/10 03:46:41;;;;;;;18.48;10.93;;;2.50;99.90;;;;;;5041678;28;20474;-59
2023/12/10 03:49:06;;;;;;;19.67;11.15;;;2.50;99.90;;;;;;5039878;28;20024;-59
2023/12/10 03:51:31;;;;;;;20.20;11.38;;;2.50;99.90;;;;;;5039886;28;20283;-59
2023/12/10 03:53:57;;;;;;;20.00;12.13;;;2.50;99.90;;;;;;5039950;28;20403;-59
2023/12/10 03:56:23;;;;;;;20.88;12.13;;;2.50;99.90;;;;;;5039449;28;20525;-59
2023/12/10 03:58:48;;;;;;;20.13;11.27;;;2.50;99.90;;;;;;5039906;28;20021;-58
2023/12/10 04:01:14;;;;;;;18.80;11.55;;;2.50;99.90;;;;;;5037517;28;20021;-58
2023/12/10 04:03:39;;;;;;;17.02;9.77;;;2.50;99.90;;;;;;5039907;28;20060;-59
2023/12/10 04:06:05;;;;;;;20.80;10.93;;;2.50;99.90;;;;;;5039643;28;20434;-58
2023/12/10 04:08:31;;;;;;;18.92;10.48;;;2.50;99.90;;;;;;5040062;28;20108;-74
2023/12/10 04:10:56;;;;;;;17.10;10.73;;;2.50;99.90;;;;;;5039701;28;20538;-59
2023/12/10 04:13:22;;;;;;;19.65;9.75;;;2.50;99.90;;;;;;5032145;28;20033;-58
2023/12/10 04:15:47;;;;;;;17.90;9.55;;;2.50;99.90;;;;;;5029947;28;20113;-58
2023/12/10 04:18:14;;;;;;;18.77;11.70;;;2.50;99.90;;;;;;5030274;28;20021;-58
2023/12/10 04:20:42;;;;;;;20.35;12.27;;;2.60;99.90;;;;;;5039288;28;20029;-57
2023/12/10 04:23:07;;;;;;;16.75;10.07;;;2.60;99.90;;;;;;5039156;28;20049;-58
2023/12/10 04:25:33;;;;;;;16.60;10.63;;;2.60;99.90;;;;;;5033600;28;20362;-58
2023/12/10 04:27:58;;;;;;;16.38;9.63;;;2.60;99.90;;;;;;5031037;28;20426;-57
2023/12/10 04:30:24;;;;;;;15.00;9.52;;;2.60;99.90;;;;;;5034655;28;20024;-56
2023/12/10 04:32:50;;;;;;;17.10;10.27;;;2.60;99.90;;;;;;5033259;28;20070;-58
2023/12/10 04:35:15;;;;;;;15.48;9.35;;;2.60;99.90;;;;;;5030728;28;20513;-59
2023/12/10 04:37:41;;;;;;;17.25;10.35;;;2.60;99.90;;;;;;5035636;28;20083;-57
2023/12/10 04:40:08;;;;;;;17.02;10.88;;;2.60;99.90;;;;;;5039101;28;20507;-58
2023/12/10 04:42:33;;;;;;;19.45;9.35;;;2.60;99.90;;;;;;5039327;28;20739;-58
2023/12/10 04:44:59;;;;;;;18.38;11.05;;;2.60;99.90;;;;;;5036188;28;20078;-58
2023/12/10 04:47:24;;;;;;;17.38;10.15;;;2.70;99.90;;;;;;5037347;28;20506;-57
2023/12/10 04:49:50;;;;;;;17.85;9.57;;;2.60;99.90;;;;;;5036555;28;20405;-57
2023/12/10 04:52:15;;;;;;;15.45;9.30;;;2.70;99.90;;;;;;5033291;28;20036;-58
2023/12/10 04:54:40;;;;;;;16.25;8.77;;;2.60;99.90;;;;;;5033403;28;20131;-56
2023/12/10 04:57:06;;;;;;;17.15;10.40;;;2.70;99.90;;;;;;5035426;28;20056;-57
2023/12/10 04:59:32;;;;;;;15.95;10.07;;;2.70;99.90;;;;;;5037794;28;20109;-57
2023/12/10 05:01:57;;;;;;;17.70;9.93;;;2.70;99.90;;;;;;5034266;28;20120;-57
2023/12/10 05:04:23;;;;;;;18.45;10.18;;;2.70;99.90;;;;;;5033315;28;20216;-57
2023/12/10 05:06:48;;;;;;;15.77;8.95;;;2.70;99.90;;;;;;5033825;28;20036;-58
2023/12/10 05:09:14;;;;;;;17.73;9.18;;;2.70;99.90;;;;;;5030219;28;20028;-57
2023/12/10 05:11:39;;;;;;;12.10;7.20;;;2.70;99.90;;;;;;5027923;28;20052;-57
2023/12/10 05:14:06;;;;;;;17.25;8.27;;;2.80;99.90;;;;;;5030048;28;20041;-57
2023/12/10 05:16:32;;;;;;;19.92;10.32;;;2.80;99.90;;;;;;5032047;28;20133;-56
2023/12/10 05:18:57;;;;;;;15.73;9.57;;;2.80;99.90;;;;;;5034875;28;20028;-56
2023/12/10 05:21:22;;;;;;;14.40;8.63;;;2.80;99.90;;;;;;5034218;28;20030;-57
2023/12/10 05:23:48;;;;;;;18.77;10.82;;;2.70;99.90;;;;;;5033392;28;20522;-56
2023/12/10 05:26:13;;;;;;;14.40;8.77;;;2.80;99.90;;;;;;5033381;28;20028;-56
2023/12/10 05:28:39;;;;;;;15.65;9.15;;;2.80;99.90;;;;;;5039299;28;20064;-55
2023/12/10 05:31:05;;;;;;;19.05;8.65;;;2.80;99.90;;;;;;5037234;28;20088;-54
2023/12/10 05:33:31;;;;;;;29.27;13.93;;;2.80;99.90;;;;;;5039519;28;20036;-54
2023/12/10 05:35:57;;;;;;;20.77;11.10;;;2.80;99.90;;;;;;5038643;28;20124;-54
2023/12/10 05:38:23;;;;;;;18.17;9.70;;;2.80;99.90;;;;;;5033228;28;20048;-57
2023/12/10 05:40:48;;;;;;;16.25;9.82;;;2.80;99.90;;;;;;5035764;28;20510;-55
2023/12/10 05:43:14;;;;;;;18.45;10.93;;;2.80;99.90;;;;;;5033563;28;20414;-56
2023/12/10 05:45:39;;;;;;;20.25;11.63;;;2.80;99.90;;;;;;5037137;28;20033;-70
2023/12/10 05:48:05;;;;;;;17.00;9.13;;;2.90;99.90;;;;;;5034152;28;20282;-69
2023/12/10 05:50:30;;;;;;;13.27;8.27;;;2.90;99.90;;;;;;5031579;28;20033;-69
2023/12/10 05:52:56;;;;;;;11.85;7.95;;;2.90;99.90;;;;;;5036327;28;20064;-70
2023/12/10 05:55:21;;;;;;;13.05;8.25;;;2.90;99.90;;;;;;5033862;28;20029;-69
2023/12/10 05:57:47;;;;;;;13.40;8.15;;;2.90;99.90;;;;;;5031126;28;20479;-69
2023/12/10 06:00:13;;;;;;;16.98;8.90;;;2.90;99.90;;;;;;5033322;28;20504;-69
2023/12/10 06:02:38;;;;;;;17.00;9.70;;;2.90;99.90;;;;;;5033968;28;20037;-69
2023/12/10 06:05:04;;;;;;;11.60;7.78;;;3.00;99.90;;;;;;5031274;28;20490;-69
2023/12/10 06:07:29;;;;;;;13.88;8.52;;;3.00;99.90;;;;;;5034709;28;20107;-68
2023/12/10 06:09:55;;;;;;;18.00;9.75;;;3.00;99.90;;;;;;5038716;28;20290;-68
2023/12/10 06:12:21;;;;;;;12.98;8.55;;;3.00;99.90;;;;;;5032085;28;20037;-68
2023/12/10 06:14:46;;;;;;;15.55;8.80;;;3.00;99.90;;;;;;5035982;28;20605;-68
2023/12/10 06:17:12;;;;;;;14.35;8.13;;;3.00;99.90;;;;;;5029009;28;20037;-69
2023/12/10 06:19:37;;;;;;;14.60;8.18;;;3.10;99.90;;;;;;5031842;28;20021;-68
2023/12/10 06:22:03;;;;;;;13.85;8.35;;;3.10;99.90;;;;;;5035224;28;20029;-68
2023/12/10 06:24:28;;;;;;;15.40;9.38;;;3.10;99.90;;;;;;5033232;28;20086;-68
2023/12/10 06:26:54;;;;;;;31.52;17.20;;;3.10;99.90;;;;;;5030814;28;20482;-68
2023/12/10 06:29:19;;;;;;;19.40;10.73;;;3.10;99.90;;;;;;5031514;28;20181;-68
2023/12/10 06:31:45;;;;;;;15.05;8.85;;;3.10;99.90;;;;;;5033652;28;20392;-68
2023/12/10 06:34:10;;;;;;;13.90;8.70;;;3.20;99.90;;;;;;5038341;28;20041;-68
2023/12/10 06:36:36;;;;;;;14.25;7.90;;;3.20;99.90;;;;;;5032945;28;20025;-68
2023/12/10 06:39:02;;;;;;;13.73;8.25;;;3.20;99.90;;;;;;5035249;28;20036;-68
2023/12/10 06:41:27;;;;;;;12.93;7.15;;;3.30;99.90;;;;;;5028675;28;20521;-68
2023/12/10 06:43:53;;;;;;;13.57;7.70;;;3.30;99.90;;;;;;5028272;28;20078;-68
2023/12/10 06:46:19;;;;;;;15.73;9.57;;;3.30;99.90;;;;;;5032607;28;20025;-68
2023/12/10 06:48:44;;;;;;;14.48;9.43;;;3.30;99.90;;;;;;5038845;28;20083;-67
2023/12/10 06:51:10;;;;;;;16.17;8.85;;;3.30;99.90;;;;;;5038768;28;20123;-69
2023/12/10 06:53:36;;;;;;;9.25;6.13;;;3.30;99.90;;;;;;5033691;28;20036;-67
2023/12/10 06:56:01;;;;;;;14.60;7.25;;;3.30;99.90;;;;;;5038429;28;20044;-67
2023/12/10 06:58:27;;;;;;;11.45;7.05;;;3.40;99.90;;;;;;5038786;28;20116;-67
2023/12/10 07:00:53;;;;;;;13.55;7.60;;;3.40;99.90;;;;;;5029544;28;20044;-67
2023/12/10 07:03:19;;;;;;;12.20;7.22;;;3.30;99.90;;;;;;5028373;28;20060;-69
2023/12/10 07:05:44;;;;;;;13.45;7.47;;;3.40;99.90;;;;;;5034206;28;20029;-66
2023/12/10 07:08:10;;;;;;;15.15;8.38;;;3.40;99.90;;;;;;5032528;28;20036;-67
2023/12/10 07:10:35;;;;;;;10.50;6.75;;;3.30;99.90;;;;;;5030816;28;20021;-67
2023/12/10 07:13:01;;;;;;;11.88;7.05;;;3.30;99.90;;;;;;5037497;28;20047;-67
2023/12/10 07:15:26;;;;;;;14.68;7.75;;;3.30;99.90;;;;;;5038157;28;20084;-67
2023/12/10 07:17:51;;;;;;;13.00;7.68;;;3.30;99.90;;;;;;5038103;28;20730;-66
2023/12/10 07:20:17;;;;;;;11.68;6.60;;;3.30;99.90;;;;;;5040156;28;20037;-67
2023/12/10 07:22:43;;;;;;;17.00;9.50;;;3.30;99.90;;;;;;5037363;28;20060;-67
2023/12/10 07:25:09;;;;;;;11.55;7.18;;;3.20;99.90;;;;;;5030018;28;20017;-67
2023/12/10 07:27:34;;;;;;;12.57;6.95;;;3.20;99.90;;;;;;5031890;28;20029;-66
2023/12/10 07:30:00;;;;;;;15.95;9.15;;;3.20;99.90;;;;;;5032414;28;20029;-72
2023/12/10 07:32:25;;;;;;;12.32;7.28;;;3.10;99.90;;;;;;5028545;28;20029;-66
2023/12/10 07:34:51;;;;;;;16.83;8.48;;;3.10;99.90;;;;;;5033339;28;20040;-66
2023/12/10 07:37:16;;;;;;;10.85;6.95;;;3.10;99.90;;;;;;5030733;28;20086;-67
2023/12/10 07:39:42;;;;;;;9.60;6.47;;;3.00;99.90;;;;;;5038178;28;20608;-67
2023/12/10 07:42:07;;;;;;;15.02;8.23;;;3.00;99.90;;;;;;5037914;28;20059;-66
2023/12/10 07:44:33;;;;;;;12.27;7.25;;;3.00;99.90;;;;;;5036423;28;20040;-67
2023/12/10 07:46:59;;;;;;;16.15;8.73;;;3.00;99.90;;;;;;5037204;28;20115;-67
2023/12/10 07:49:24;;;;;;;15.10;7.65;;;3.00;99.90;;;;;;5037346;28;20579;-66
2023/12/10 07:51:50;;;;;;;17.33;9.82;;;3.00;99.90;;;;;;5039831;28;20025;-66
2023/12/10 07:54:15;;;;;;;15.32;8.68;;;2.90;99.90;;;;;;5037697;28;20050;-66
2023/12/10 07:56:41;;;;;;;14.95;7.75;;;2.90;99.90;;;;;;5037529;28;20118;-66
2023/12/10 07:59:06;;;;;;;15.40;8.98;;;2.90;99.90;;;;;;5037287;28;20394;-66
2023/12/10 08:01:31;;;;;;;16.20;9.85;;;2.90;99.90;;;;;;5037611;28;20043;-66
2023/12/10 08:03:57;;;;;;;13.65;8.45;;;2.90;99.90;;;;;;5034441;28;20087;-65
2023/12/10 08:06:22;;;;;;;16.55;8.77;;;3.00;99.90;;;;;;5039302;28;20359;-66
2023/12/10 08:08:48;;;;;;;13.55;7.47;;;3.00;99.90;;;;;;5037122;28;20033;-65
2023/12/10 08:11:14;;;;;;;14.10;7.10;;;3.00;99.90;;;;;;5037365;28;20049;-66
2023/12/10 08:13:40;;;;;;;13.63;7.35;;;3.10;99.90;;;;;;5037031;28;20051;-66
2023/12/10 08:16:06;;;;;;;12.15;6.38;;;3.10;99.90;;;;;;5030128;28;20103;-65
2023/12/10 08:18:32;;;;;;;12.10;6.35;;;3.10;99.90;;;;;;5031371;28;20107;-66
2023/12/10 08:20:57;;;;;;;11.27;7.38;;;3.10;99.90;;;;;;5030075;28;20029;-65
2023/12/10 08:23:23;;;;;;;12.50;6.82;;;3.10;99.90;;;;;;5029066;28;20132;-65
2023/12/10 08:25:48;;;;;;;10.73;6.97;;;3.20;99.90;;;;;;5038163;28;20025;-65
2023/12/10 08:28:14;;;;;;;15.85;9.93;;;3.30;99.90;;;;;;5038050;28;20032;-65
2023/12/10 08:30:39;;;;;;;12.10;6.72;;;3.30;99.90;;;;;;5037194;28;20027;-66
2023/12/10 08:33:05;;;;;;;15.57;7.95;;;3.30;99.90;;;;;;5036764;28;20138;-66
2023/12/10 08:35:31;;;;;;;14.90;7.38;;;3.40;99.90;;;;;;5031556;28;20379;-66
2023/12/10 08:37:56;;;;;;;14.15;7.45;;;3.40;99.90;;;;;;5036686;28;20048;-65
2023/12/10 08:40:22;;;;;;;12.95;7.13;;;3.50;99.90;;;;;;5039607;28;20024;-66
2023/12/10 08:42:47;;;;;;;13.38;7.05;;;3.50;99.90;;;;;;5039844;28;20017;-66
2023/12/10 08:45:13;;;;;;;12.15;7.18;;;3.60;99.90;;;;;;5039690;28;20602;-66
2023/12/10 08:47:38;;;;;;;12.32;6.85;;;3.70;99.90;;;;;;5040002;28;20551;-66
2023/12/10 08:50:04;;;;;;;12.00;7.38;;;3.80;99.90;;;;;;5036864;28;20079;-67
2023/12/10 08:52:30;;;;;;;15.73;8.90;;;3.80;99.90;;;;;;5033328;28;20029;-68
2023/12/10 08:54:56;;;;;;;14.43;7.45;;;3.90;99.90;;;;;;5034677;28;20108;-67
2023/12/10 08:57:24;;;;;;;12.38;6.78;;;3.90;99.90;;;;;;5039304;28;20040;-66
2023/12/10 08:59:49;;;;;;;15.48;7.32;;;4.00;99.90;;;;;;5038596;28;20111;-68
2023/12/10 09:02:16;;;;;;;14.82;7.93;;;4.10;99.90;;;;;;5034236;28;20108;-67
2023/12/10 09:04:41;;;;;;;15.02;8.43;;;4.10;99.90;;;;;;5040341;28;20139;-66
2023/12/10 09:07:07;;;;;;;9.85;6.28;;;4.20;99.90;;;;;;5032749;28;20039;-66
2023/12/10 09:09:32;;;;;;;12.50;7.00;;;4.40;99.90;;;;;;5032996;28;20036;-68
2023/12/10 09:11:59;;;;;;;13.43;7.00;;;4.50;99.90;;;;;;5034448;28;20105;-68
2023/12/10 09:14:24;;;;;;;14.88;7.25;;;4.60;99.90;;;;;;5033643;28;20033;-69
2023/12/10 09:16:50;;;;;;;13.73;6.97;;;4.70;99.90;;;;;;5035766;28;20024;-67
2023/12/10 09:19:16;;;;;;;14.63;7.30;;;4.80;99.90;;;;;;5039797;28;20029;-68
2023/12/10 09:21:43;;;;;;;15.50;7.38;;;4.90;99.90;;;;;;5038136;28;20025;-69
2023/12/10 09:24:09;;;;;;;13.27;6.68;;;5.00;99.90;;;;;;5036515;28;20032;-68
2023/12/10 09:26:34;;;;;;;11.75;7.03;;;5.20;99.90;;;;;;5039405;28;20025;-68
2023/12/10 09:29:00;;;;;;;15.23;6.47;;;5.40;99.90;;;;;;5039105;28;20017;-68
2023/12/10 09:31:27;;;;;;;15.27;7.00;;;5.60;99.90;;;;;;5039411;28;20025;-68
2023/12/10 09:33:53;;;;;;;10.98;5.90;;;5.80;99.90;;;;;;5040650;28;20025;-67
2023/12/10 09:36:18;;;;;;;13.10;5.95;;;6.00;99.90;;;;;;5036993;28;20025;-66
2023/12/10 09:38:44;;;;;;;13.95;5.18;;;6.10;99.90;;;;;;5034138;28;20047;-66
2023/12/10 09:41:10;;;;;;;8.00;4.78;;;6.30;99.90;;;;;;5039229;28;20021;-66
2023/12/10 09:43:35;;;;;;;14.82;5.07;;;6.40;99.90;;;;;;5039242;28;20108;-66
2023/12/10 09:46:03;;;;;;;11.52;5.28;;;6.50;99.90;;;;;;5037320;28;20470;-70
2023/12/10 09:48:29;;;;;;;13.43;5.78;;;6.60;99.90;;;;;;5039240;28;20047;-67
2023/12/10 09:50:55;;;;;;;12.55;4.82;;;6.60;99.90;;;;;;5041335;28;20098;-68
2023/12/10 09:53:21;;;;;;;11.25;4.40;;;6.60;99.90;;;;;;5039196;28;20080;-70
2023/12/10 09:55:48;;;;;;;10.15;4.55;;;6.60;99.90;;;;;;5037767;28;20933;-70
2023/12/10 09:58:13;;;;;;;15.65;5.10;;;6.70;99.90;;;;;;5038982;28;20021;-69
2023/12/10 10:00:39;;;;;;;12.13;4.65;;;6.70;99.90;;;;;;5042380;28;20453;-69
2023/12/10 10:03:05;;;;;;;7.07;4.03;;;6.70;99.90;;;;;;5032598;28;20498;-70
2023/12/10 10:05:33;;;;;;;8.40;3.90;;;6.70;99.90;;;;;;5040848;28;20021;-69
2023/12/10 10:07:59;;;;;;;13.43;4.63;;;6.70;99.90;;;;;;5040605;28;20040;-69
2023/12/10 10:10:25;;;;;;;9.73;4.57;;;6.80;99.90;;;;;;5037426;28;20498;-69
2023/12/10 10:12:53;;;;;;;13.75;4.30;;;6.80;99.90;;;;;;5040134;28;20112;-70
2023/12/10 10:15:29;;;;;;;7.93;3.67;;;6.80;99.90;;;;;;5042455;28;20028;-69
2023/12/10 10:17:55;;;;;;;10.75;4.47;;;6.90;99.90;;;;;;5042500;28;20029;-69
2023/12/10 10:20:22;;;;;;;11.55;3.45;;;6.90;99.90;;;;;;5042580;28;20040;-70
2023/12/10 10:22:48;;;;;;;10.07;3.70;;;7.00;99.90;;;;;;5035319;28;20017;-69
2023/12/10 10:25:14;;;;;;;14.65;3.40;;;7.00;99.90;;;;;;5035756;28;20017;-69
2023/12/10 10:27:40;;;;;;;11.35;4.18;;;7.00;99.90;;;;;;5042295;28;20017;-69
2023/12/10 10:30:06;;;;;;;11.35;3.63;;;7.10;99.90;;;;;;5044242;28;20021;-70
2023/12/10 10:32:33;;;;;;;13.90;4.07;;;7.20;99.90;;;;;;5037976;28;20025;-70
2023/12/10 10:35:03;;;;;;;15.10;3.70;;;7.30;99.90;;;;;;5042056;28;20052;-70
2023/12/10 10:37:28;;;;;;;16.27;4.45;;;7.40;99.90;;;;;;5039305;28;20036;-69
2023/12/10 10:39:55;;;;;;;14.27;3.55;;;7.60;99.90;;;;;;5041819;28;20104;-69
2023/12/10 10:42:20;;;;;;;10.75;3.58;;;7.70;99.90;;;;;;5040650;28;20155;-69
2023/12/10 10:44:48;;;;;;;12.50;4.07;;;7.80;99.90;;;;;;5042043;28;20067;-70
2023/12/10 10:47:18;;;;;;;21.42;5.35;;;7.80;99.90;;;;;;5041806;28;20753;-69
2023/12/10 10:49:46;;;;;;;22.02;3.83;;;7.80;99.90;;;;;;5041866;28;20017;-68
2023/12/10 10:52:18;;;;;;;17.30;3.10;;;7.90;99.90;;;;;;5042365;28;20025;-69
2023/12/10 10:54:45;;;;;;;17.77;4.40;;;7.90;99.90;;;;;;5040932;28;20025;-68
2023/12/10 10:57:10;;;;;;;21.42;4.32;;;7.90;99.90;;;;;;5043322;28;20036;-70
2023/12/10 10:59:36;;;;;;;20.85;4.63;;;7.80;99.90;;;;;;5041866;28;20078;-69
2023/12/10 11:02:05;;;;;;;16.77;4.75;;;7.90;99.90;;;;;;5040455;28;20086;-67
2023/12/10 11:04:41;;;;;;;22.80;6.25;;;7.80;99.90;;;;;;5033430;28;20507;-67
2023/12/10 11:07:07;;;;;;;23.23;7.60;;;7.80;99.90;;;;;;5042342;28;20025;-67
2023/12/10 11:09:53;;;;;;;20.48;6.75;;;7.80;99.90;;;;;;5042514;28;20187;-67
2023/12/10 11:12:44;;;;;;;29.92;6.47;;;7.90;99.90;;;;;;5038261;28;20175;-66
2023/12/10 11:15:18;;;;;;;25.27;5.50;;;8.00;99.90;;;;;;5041378;28;20017;-67
2023/12/10 11:18:00;;;;;;;22.02;5.30;;;8.00;99.90;;;;;;5041804;28;20032;-67
2023/12/10 11:20:35;;;;;;;22.20;6.15;;;8.00;99.90;;;;;;5035093;28;20635;-67
2023/12/10 11:23:03;;;;;;;11.70;5.05;;;8.00;99.90;;;;;;5041157;28;20029;-67
2023/12/10 11:25:29;;;;;;;19.83;5.05;;;8.00;99.90;;;;;;5040909;28;20029;-66
2023/12/10 11:27:56;;;;;;;14.90;5.53;;;8.00;99.90;;;;;;5041164;28;20339;-67
2023/12/10 11:30:22;;;;;;;15.35;4.50;;;8.00;99.90;;;;;;5041213;28;20017;-67
2023/12/10 11:32:47;;;;;;;21.70;5.05;;;8.00;99.90;;;;;;5041050;28;20024;-65
2023/12/10 11:35:14;;;;;;;21.73;6.22;;;8.00;99.90;;;;;;5039335;28;20092;-67
2023/12/10 11:37:41;;;;;;;34.83;12.60;;;8.00;99.90;;;;;;5034413;28;20111;-67
2023/12/10 11:40:08;;;;;;;22.70;8.65;;;8.00;99.90;;;;;;5041009;28;20017;-68
2023/12/10 11:42:34;;;;;;;37.28;12.85;;;7.90;99.90;;;;;;5040960;28;20542;-68
2023/12/10 11:44:59;;;;;;;36.72;17.08;;;8.00;99.90;;;;;;5040955;28;20105;-67
2023/12/10 11:47:25;;;;;;;20.80;8.27;;;8.00;99.90;;;;;;5040579;28;20040;-67
2023/12/10 11:49:50;;;;;;;41.85;19.40;;;7.90;99.90;;;;;;5042735;28;20449;-67
2023/12/10 11:52:16;;;;;;;34.78;11.18;;;7.90;99.90;;;;;;5040609;28;20029;-67
2023/12/10 11:54:42;;;;;;;27.42;9.80;;;7.90;99.90;;;;;;5040389;28;20036;-68
2023/12/10 11:57:08;;;;;;;30.17;12.48;;;8.00;99.90;;;;;;5040639;28;20043;-68
2023/12/10 11:59:33;;;;;;;29.48;7.15;;;8.00;99.90;;;;;;5040682;28;20033;-67
2023/12/10 12:01:59;;;;;;;86.63;37.78;;;8.00;99.90;;;;;;5037536;28;20037;-67
2023/12/10 12:04:24;;;;;;;50.00;16.75;;;8.00;99.90;;;;;;5037521;28;20398;-68
2023/12/10 12:06:50;;;;;;;71.45;31.83;;;8.00;99.90;;;;;;5037842;28;20025;-67
2023/12/10 12:09:22;;;;;;;40.75;19.05;;;8.00;99.90;;;;;;5034709;28;20128;-67
2023/12/10 12:11:51;;;;;;;33.75;15.13;;;7.90;99.90;;;;;;5037976;28;20060;-68
2023/12/10 12:14:18;;;;;;;58.75;28.13;;;7.90;99.90;;;;;;5037250;28;20036;-67
2023/12/10 12:16:46;;;;;;;66.15;29.95;;;7.90;99.90;;;;;;5037950;28;20033;-67
2023/12/10 12:19:27;;;;;;;50.10;22.73;;;7.90;99.90;;;;;;5037823;28;20039;-68
2023/12/10 12:21:52;;;;;;;32.40;14.90;;;7.90;99.90;;;;;;5037964;28;20021;-67
2023/12/10 12:24:18;;;;;;;41.03;15.90;;;7.90;99.90;;;;;;5037752;28;20040;-68
2023/12/10 12:26:44;;;;;;;37.60;14.68;;;7.90;99.90;;;;;;5036396;28;20024;-68
2023/12/10 12:29:09;;;;;;;64.00;27.98;;;7.80;99.90;;;;;;5037791;28;20119;-69
2023/12/10 12:31:35;;;;;;;66.63;31.65;;;7.80;99.90;;;;;;5037532;28;20037;-68
2023/12/10 12:34:00;;;;;;;40.45;16.75;;;7.80;99.90;;;;;;5037333;28;20032;-68
2023/12/10 12:36:26;;;;;;;30.75;14.55;;;7.80;99.90;;;;;;5036306;28;20688;-67
2023/12/10 12:38:51;;;;;;;40.63;18.05;;;7.80;99.90;;;;;;5035006;28;20017;-70